sensor_id;sensor_type;location;lat;lon;timestamp;temperature;humidity
11559;DHT22;5835;42.930;25.178;2022-07-05T00:01:47;20.20;99.90
11559;DHT22;5835;42.930;25.178;2022-07-05T00:04:14;20.20;99.90
11559;DHT22;5835;42.930;25.178;2022-07-05T00:06:42;20.10;99.90
11559;DHT22;5835;42.930;25.178;2022-07-05T00:09:23;20.10;99.90
11559;DHT22;5835;42.930;25.178;2022-07-05T00:11:53;20.10;99.90
11559;DHT22;5835;42.930;25.178;2022-07-05T00:14:20;20.00;99.90
11559;DHT22;5835;42.930;25.178;2022-07-05T00:16:48;20.00;99.90
11559;DHT22;5835;42.930;25.178;2022-07-05T00:19:16;20.10;99.90
11559;DHT22;5835;42.930;25.178;2022-07-05T00:21:44;20.10;99.90
11559;DHT22;5835;42.930;25.178;2022-07-05T00:24:12;20.10;99.90
11559;DHT22;5835;42.930;25.178;2022-07-05T00:26:40;20.10;99.90
11559;DHT22;5835;42.930;25.178;2022-07-05T00:29:09;20.20;99.90
11559;DHT22;5835;42.930;25.178;2022-07-05T00:31:37;20.10;99.90
11559;DHT22;5835;42.930;25.178;2022-07-05T00:34:05;20.10;1.00
11559;DHT22;5835;42.930;25.178;2022-07-05T00:36:33;20.00;1.00
11559;DHT22;5835;42.930;25.178;2022-07-05T00:39:00;20.00;1.00
11559;DHT22;5835;42.930;25.178;2022-07-05T00:41:28;19.90;1.00
11559;DHT22;5835;42.930;25.178;2022-07-05T00:43:57;19.90;1.00
11559;DHT22;5835;42.930;25.178;2022-07-05T00:46:27;19.90;1.00
11559;DHT22;5835;42.930;25.178;2022-07-05T00:48:57;19.80;1.00
11559;DHT22;5835;42.930;25.178;2022-07-05T00:51:26;19.80;1.00
11559;DHT22;5835;42.930;25.178;2022-07-05T00:53:54;19.80;1.00
11559;DHT22;5835;42.930;25.178;2022-07-05T00:56:23;19.80;1.00
11559;DHT22;5835;42.930;25.178;2022-07-05T00:58:51;19.80;1.00
11559;DHT22;5835;42.930;25.178;2022-07-05T01:01:20;19.80;1.00
11559;DHT22;5835;42.930;25.178;2022-07-05T01:03:49;19.80;1.00
11559;DHT22;5835;42.930;25.178;2022-07-05T01:06:17;19.80;1.00
11559;DHT22;5835;42.930;25.178;2022-07-05T01:08:46;19.80;1.00
11559;DHT22;5835;42.930;25.178;2022-07-05T01:11:15;19.90;1.00
11559;DHT22;5835;42.930;25.178;2022-07-05T01:13:43;19.90;1.00
11559;DHT22;5835;42.930;25.178;2022-07-05T01:16:11;19.90;1.00
11559;DHT22;5835;42.930;25.178;2022-07-05T01:18:40;20.00;1.00
11559;DHT22;5835;42.930;25.178;2022-07-05T01:21:13;19.80;1.00
11559;DHT22;5835;42.930;25.178;2022-07-05T01:23:46;19.70;1.00
11559;DHT22;5835;42.930;25.178;2022-07-05T01:26:14;19.60;1.00
11559;DHT22;5835;42.930;25.178;2022-07-05T01:28:42;19.70;1.00
11559;DHT22;5835;42.930;25.178;2022-07-05T01:31:11;19.70;1.00
11559;DHT22;5835;42.930;25.178;2022-07-05T01:33:39;19.70;1.00
11559;DHT22;5835;42.930;25.178;2022-07-05T01:36:08;19.70;1.00
11559;DHT22;5835;42.930;25.178;2022-07-05T01:38:40;19.70;1.00
11559;DHT22;5835;42.930;25.178;2022-07-05T01:41:10;19.60;1.00
11559;DHT22;5835;42.930;25.178;2022-07-05T01:43:37;19.50;1.00
11559;DHT22;5835;42.930;25.178;2022-07-05T01:46:08;19.40;1.00
11559;DHT22;5835;42.930;25.178;2022-07-05T01:48:38;19.50;1.50
11559;DHT22;5835;42.930;25.178;2022-07-05T01:51:13;19.60;1.00
11559;DHT22;5835;42.930;25.178;2022-07-05T01:53:43;19.50;99.90
11559;DHT22;5835;42.930;25.178;2022-07-05T01:56:13;19.40;99.90
11559;DHT22;5835;42.930;25.178;2022-07-05T01:58:42;18.80;99.90
11559;DHT22;5835;42.930;25.178;2022-07-05T02:01:10;18.60;57.50
11559;DHT22;5835;42.930;25.178;2022-07-05T02:03:39;18.30;68.50
11559;DHT22;5835;42.930;25.178;2022-07-05T02:06:07;18.10;99.90
11559;DHT22;5835;42.930;25.178;2022-07-05T02:08:36;17.90;1.00
11559;DHT22;5835;42.930;25.178;2022-07-05T02:11:04;17.80;99.90
11559;DHT22;5835;42.930;25.178;2022-07-05T02:13:33;18.00;99.90
11559;DHT22;5835;42.930;25.178;2022-07-05T02:16:01;18.30;99.90
11559;DHT22;5835;42.930;25.178;2022-07-05T02:18:29;18.60;99.90
11559;DHT22;5835;42.930;25.178;2022-07-05T02:20:57;18.70;99.90
11559;DHT22;5835;42.930;25.178;2022-07-05T02:23:24;18.70;1.00
11559;DHT22;5835;42.930;25.178;2022-07-05T02:25:52;18.50;1.00
11559;DHT22;5835;42.930;25.178;2022-07-05T02:28:19;18.60;1.00
11559;DHT22;5835;42.930;25.178;2022-07-05T02:30:48;18.70;99.90
11559;DHT22;5835;42.930;25.178;2022-07-05T02:33:16;18.50;99.90
11559;DHT22;5835;42.930;25.178;2022-07-05T02:35:43;18.30;50.80
11559;DHT22;5835;42.930;25.178;2022-07-05T02:38:11;18.30;99.90
11559;DHT22;5835;42.930;25.178;2022-07-05T02:40:39;18.40;40.40
11559;DHT22;5835;42.930;25.178;2022-07-05T02:43:07;18.30;99.90
11559;DHT22;5835;42.930;25.178;2022-07-05T02:45:34;18.30;96.60
11559;DHT22;5835;42.930;25.178;2022-07-05T02:48:03;18.40;99.90
11559;DHT22;5835;42.930;25.178;2022-07-05T02:50:31;18.60;99.90
11559;DHT22;5835;42.930;25.178;2022-07-05T02:52:58;18.70;99.90
11559;DHT22;5835;42.930;25.178;2022-07-05T02:55:26;18.40;1.00
11559;DHT22;5835;42.930;25.178;2022-07-05T02:57:54;18.20;99.90
11559;DHT22;5835;42.930;25.178;2022-07-05T03:00:22;18.30;99.90
11559;DHT22;5835;42.930;25.178;2022-07-05T03:02:50;18.60;1.00
11559;DHT22;5835;42.930;25.178;2022-07-05T03:05:19;18.50;99.90
11559;DHT22;5835;42.930;25.178;2022-07-05T03:07:47;18.30;99.90
11559;DHT22;5835;42.930;25.178;2022-07-05T03:10:15;18.20;48.70
11559;DHT22;5835;42.930;25.178;2022-07-05T03:12:42;18.40;99.90
11559;DHT22;5835;42.930;25.178;2022-07-05T03:15:11;18.60;99.90
11559;DHT22;5835;42.930;25.178;2022-07-05T03:17:38;18.50;99.90
11559;DHT22;5835;42.930;25.178;2022-07-05T03:20:07;18.40;1.00
11559;DHT22;5835;42.930;25.178;2022-07-05T03:22:36;18.30;99.90
11559;DHT22;5835;42.930;25.178;2022-07-05T03:25:05;18.20;99.90
11559;DHT22;5835;42.930;25.178;2022-07-05T03:27:33;18.30;99.90
11559;DHT22;5835;42.930;25.178;2022-07-05T03:30:01;18.50;1.00
11559;DHT22;5835;42.930;25.178;2022-07-05T03:32:28;18.40;1.00
11559;DHT22;5835;42.930;25.178;2022-07-05T03:34:59;18.10;99.90
11559;DHT22;5835;42.930;25.178;2022-07-05T03:37:27;18.30;1.00
11559;DHT22;5835;42.930;25.178;2022-07-05T03:39:56;18.40;99.90
11559;DHT22;5835;42.930;25.178;2022-07-05T03:42:24;18.60;1.00
11559;DHT22;5835;42.930;25.178;2022-07-05T03:44:52;18.60;1.00
11559;DHT22;5835;42.930;25.178;2022-07-05T03:47:20;19.00;1.00
11559;DHT22;5835;42.930;25.178;2022-07-05T03:49:48;20.00;99.90
11559;DHT22;5835;42.930;25.178;2022-07-05T03:52:16;19.90;51.20
11559;DHT22;5835;42.930;25.178;2022-07-05T03:54:44;20.10;99.90
11559;DHT22;5835;42.930;25.178;2022-07-05T03:57:13;20.60;99.90
11559;DHT22;5835;42.930;25.178;2022-07-05T03:59:41;20.30;99.90
11559;DHT22;5835;42.930;25.178;2022-07-05T04:02:08;20.80;37.40
11559;DHT22;5835;42.930;25.178;2022-07-05T04:04:36;20.60;1.00
11559;DHT22;5835;42.930;25.178;2022-07-05T04:07:04;20.40;99.90
11559;DHT22;5835;42.930;25.178;2022-07-05T04:09:33;20.40;1.00
11559;DHT22;5835;42.930;25.178;2022-07-05T04:12:00;20.20;7.10
11559;DHT22;5835;42.930;25.178;2022-07-05T04:14:30;20.00;99.90
11559;DHT22;5835;42.930;25.178;2022-07-05T04:16:57;20.00;99.90
11559;DHT22;5835;42.930;25.178;2022-07-05T04:19:25;19.90;99.90
11559;DHT22;5835;42.930;25.178;2022-07-05T04:21:53;20.00;99.90
11559;DHT22;5835;42.930;25.178;2022-07-05T04:24:21;20.10;99.90
11559;DHT22;5835;42.930;25.178;2022-07-05T04:26:48;20.10;1.00
11559;DHT22;5835;42.930;25.178;2022-07-05T04:29:16;20.40;8.70
11559;DHT22;5835;42.930;25.178;2022-07-05T04:31:45;20.40;1.00
11559;DHT22;5835;42.930;25.178;2022-07-05T04:34:13;20.40;1.00
11559;DHT22;5835;42.930;25.178;2022-07-05T04:36:41;20.50;48.10
11559;DHT22;5835;42.930;25.178;2022-07-05T04:39:10;20.70;1.00
11559;DHT22;5835;42.930;25.178;2022-07-05T04:41:37;20.80;98.40
11559;DHT22;5835;42.930;25.178;2022-07-05T04:44:05;20.90;1.00
11559;DHT22;5835;42.930;25.178;2022-07-05T04:46:32;21.00;1.00
11559;DHT22;5835;42.930;25.178;2022-07-05T04:49:01;21.10;1.00
11559;DHT22;5835;42.930;25.178;2022-07-05T04:51:29;21.10;1.00
11559;DHT22;5835;42.930;25.178;2022-07-05T04:53:56;21.10;95.20
11559;DHT22;5835;42.930;25.178;2022-07-05T04:56:24;21.10;1.00
11559;DHT22;5835;42.930;25.178;2022-07-05T04:58:52;21.30;1.00
11559;DHT22;5835;42.930;25.178;2022-07-05T05:01:20;21.60;99.90
11559;DHT22;5835;42.930;25.178;2022-07-05T05:03:47;21.90;99.90
11559;DHT22;5835;42.930;25.178;2022-07-05T05:06:16;22.00;99.90
11559;DHT22;5835;42.930;25.178;2022-07-05T05:08:44;22.20;99.90
11559;DHT22;5835;42.930;25.178;2022-07-05T05:11:11;22.30;99.90
11559;DHT22;5835;42.930;25.178;2022-07-05T05:13:48;22.40;1.00
11559;DHT22;5835;42.930;25.178;2022-07-05T05:16:16;22.50;45.30
11559;DHT22;5835;42.930;25.178;2022-07-05T05:18:43;22.40;1.00
11559;DHT22;5835;42.930;25.178;2022-07-05T05:21:11;22.50;1.00
11559;DHT22;5835;42.930;25.178;2022-07-05T05:23:46;22.60;1.00
11559;DHT22;5835;42.930;25.178;2022-07-05T05:26:13;22.90;1.00
11559;DHT22;5835;42.930;25.178;2022-07-05T05:28:41;23.00;1.00
11559;DHT22;5835;42.930;25.178;2022-07-05T05:31:09;23.20;1.00
11559;DHT22;5835;42.930;25.178;2022-07-05T05:33:36;23.10;1.00
11559;DHT22;5835;42.930;25.178;2022-07-05T05:36:05;23.00;99.90
11559;DHT22;5835;42.930;25.178;2022-07-05T05:38:32;22.90;99.90
11559;DHT22;5835;42.930;25.178;2022-07-05T05:41:02;22.70;99.90
11559;DHT22;5835;42.930;25.178;2022-07-05T05:43:29;22.80;99.90
11559;DHT22;5835;42.930;25.178;2022-07-05T05:45:57;23.00;99.90
11559;DHT22;5835;42.930;25.178;2022-07-05T05:48:24;23.00;99.90
11559;DHT22;5835;42.930;25.178;2022-07-05T05:50:52;23.10;99.90
11559;DHT22;5835;42.930;25.178;2022-07-05T05:53:20;23.10;99.90
11559;DHT22;5835;42.930;25.178;2022-07-05T05:55:47;23.20;99.90
11559;DHT22;5835;42.930;25.178;2022-07-05T05:58:18;23.20;99.90
11559;DHT22;5835;42.930;25.178;2022-07-05T06:00:46;23.20;99.90
11559;DHT22;5835;42.930;25.178;2022-07-05T06:03:17;23.10;99.90
11559;DHT22;5835;42.930;25.178;2022-07-05T06:05:45;23.30;99.90
11559;DHT22;5835;42.930;25.178;2022-07-05T06:08:12;23.70;99.90
11559;DHT22;5835;42.930;25.178;2022-07-05T06:10:41;23.50;85.60
11559;DHT22;5835;42.930;25.178;2022-07-05T06:13:09;23.60;59.00
11559;DHT22;5835;42.930;25.178;2022-07-05T06:15:42;23.80;99.90
11559;DHT22;5835;42.930;25.178;2022-07-05T06:18:10;24.10;1.00
11559;DHT22;5835;42.930;25.178;2022-07-05T06:20:38;24.20;1.00
11559;DHT22;5835;42.930;25.178;2022-07-05T06:23:06;24.30;1.00
11559;DHT22;5835;42.930;25.178;2022-07-05T06:25:34;24.40;1.00
11559;DHT22;5835;42.930;25.178;2022-07-05T06:28:04;24.30;1.00
11559;DHT22;5835;42.930;25.178;2022-07-05T06:30:33;24.40;1.00
11559;DHT22;5835;42.930;25.178;2022-07-05T06:33:03;24.50;1.00
11559;DHT22;5835;42.930;25.178;2022-07-05T06:35:31;24.90;99.90
11559;DHT22;5835;42.930;25.178;2022-07-05T06:38:00;25.00;99.90
11559;DHT22;5835;42.930;25.178;2022-07-05T06:40:30;25.40;99.90
11559;DHT22;5835;42.930;25.178;2022-07-05T06:42:59;25.50;99.90
11559;DHT22;5835;42.930;25.178;2022-07-05T06:45:27;25.60;99.90
11559;DHT22;5835;42.930;25.178;2022-07-05T06:47:55;25.60;99.90
11559;DHT22;5835;42.930;25.178;2022-07-05T06:50:24;25.90;99.90
11559;DHT22;5835;42.930;25.178;2022-07-05T06:52:52;26.10;99.90
11559;DHT22;5835;42.930;25.178;2022-07-05T06:55:19;26.30;99.90
11559;DHT22;5835;42.930;25.178;2022-07-05T06:57:47;26.50;99.90
11559;DHT22;5835;42.930;25.178;2022-07-05T07:00:15;26.80;99.90
11559;DHT22;5835;42.930;25.178;2022-07-05T07:02:43;26.80;99.90
11559;DHT22;5835;42.930;25.178;2022-07-05T07:05:11;26.90;99.10
11559;DHT22;5835;42.930;25.178;2022-07-05T07:07:40;27.20;92.10
11559;DHT22;5835;42.930;25.178;2022-07-05T07:10:25;27.20;65.30
11559;DHT22;5835;42.930;25.178;2022-07-05T07:12:52;27.50;55.00
11559;DHT22;5835;42.930;25.178;2022-07-05T07:15:20;27.60;55.00
11559;DHT22;5835;42.930;25.178;2022-07-05T07:17:47;27.70;46.40
11559;DHT22;5835;42.930;25.178;2022-07-05T07:20:15;27.50;8.20
11559;DHT22;5835;42.930;25.178;2022-07-05T07:22:44;27.70;8.80
11559;DHT22;5835;42.930;25.178;2022-07-05T07:25:12;27.90;14.40
11559;DHT22;5835;42.930;25.178;2022-07-05T07:27:43;28.00;1.00
11559;DHT22;5835;42.930;25.178;2022-07-05T07:30:12;28.00;1.00
11559;DHT22;5835;42.930;25.178;2022-07-05T07:32:40;27.90;1.00
11559;DHT22;5835;42.930;25.178;2022-07-05T07:35:09;28.10;1.00
11559;DHT22;5835;42.930;25.178;2022-07-05T07:37:37;28.30;1.00
11559;DHT22;5835;42.930;25.178;2022-07-05T07:40:07;28.40;1.00
11559;DHT22;5835;42.930;25.178;2022-07-05T07:42:35;28.60;1.00
11559;DHT22;5835;42.930;25.178;2022-07-05T07:45:04;28.70;1.00
11559;DHT22;5835;42.930;25.178;2022-07-05T07:47:32;28.70;1.00
11559;DHT22;5835;42.930;25.178;2022-07-05T07:50:01;28.70;1.00
11559;DHT22;5835;42.930;25.178;2022-07-05T07:52:29;29.20;1.00
11559;DHT22;5835;42.930;25.178;2022-07-05T07:54:59;29.30;1.00
11559;DHT22;5835;42.930;25.178;2022-07-05T07:57:28;29.20;1.00
11559;DHT22;5835;42.930;25.178;2022-07-05T07:59:56;29.40;1.00
11559;DHT22;5835;42.930;25.178;2022-07-05T08:02:24;29.60;1.00
11559;DHT22;5835;42.930;25.178;2022-07-05T08:04:51;29.70;1.00
11559;DHT22;5835;42.930;25.178;2022-07-05T08:07:19;30.20;1.00
11559;DHT22;5835;42.930;25.178;2022-07-05T08:09:47;30.00;1.00
11559;DHT22;5835;42.930;25.178;2022-07-05T08:12:16;30.00;1.00
11559;DHT22;5835;42.930;25.178;2022-07-05T08:14:45;30.40;1.00
11559;DHT22;5835;42.930;25.178;2022-07-05T08:17:13;30.40;1.00
11559;DHT22;5835;42.930;25.178;2022-07-05T08:19:40;30.60;1.00
11559;DHT22;5835;42.930;25.178;2022-07-05T08:22:24;31.00;1.00
11559;DHT22;5835;42.930;25.178;2022-07-05T08:24:52;30.70;1.00
11559;DHT22;5835;42.930;25.178;2022-07-05T08:27:20;30.80;1.00
11559;DHT22;5835;42.930;25.178;2022-07-05T08:29:49;30.60;1.00
11559;DHT22;5835;42.930;25.178;2022-07-05T08:32:17;31.10;1.00
11559;DHT22;5835;42.930;25.178;2022-07-05T08:34:45;31.60;1.00
11559;DHT22;5835;42.930;25.178;2022-07-05T08:37:13;32.10;1.00
11559;DHT22;5835;42.930;25.178;2022-07-05T08:39:41;31.90;1.00
11559;DHT22;5835;42.930;25.178;2022-07-05T08:42:09;32.40;1.00
11559;DHT22;5835;42.930;25.178;2022-07-05T08:44:38;32.80;1.00
11559;DHT22;5835;42.930;25.178;2022-07-05T08:47:10;33.00;1.00
11559;DHT22;5835;42.930;25.178;2022-07-05T08:49:39;33.10;1.00
11559;DHT22;5835;42.930;25.178;2022-07-05T08:52:10;33.40;1.00
11559;DHT22;5835;42.930;25.178;2022-07-05T08:54:39;34.00;1.00
11559;DHT22;5835;42.930;25.178;2022-07-05T08:57:07;34.00;1.00
11559;DHT22;5835;42.930;25.178;2022-07-05T08:59:36;34.30;1.00
11559;DHT22;5835;42.930;25.178;2022-07-05T09:02:04;33.50;1.00
11559;DHT22;5835;42.930;25.178;2022-07-05T09:04:36;33.70;1.00
11559;DHT22;5835;42.930;25.178;2022-07-05T09:07:05;34.10;1.00
11559;DHT22;5835;42.930;25.178;2022-07-05T09:09:38;34.10;1.00
11559;DHT22;5835;42.930;25.178;2022-07-05T09:12:10;33.70;1.00
11559;DHT22;5835;42.930;25.178;2022-07-05T09:14:38;33.90;1.00
11559;DHT22;5835;42.930;25.178;2022-07-05T09:17:06;33.60;1.00
11559;DHT22;5835;42.930;25.178;2022-07-05T09:19:36;33.40;1.00
11559;DHT22;5835;42.930;25.178;2022-07-05T09:22:05;33.30;1.00
11559;DHT22;5835;42.930;25.178;2022-07-05T09:24:43;33.90;1.00
11559;DHT22;5835;42.930;25.178;2022-07-05T09:27:11;34.60;1.00
11559;DHT22;5835;42.930;25.178;2022-07-05T09:29:40;35.00;1.00
11559;DHT22;5835;42.930;25.178;2022-07-05T09:32:23;35.00;1.00
11559;DHT22;5835;42.930;25.178;2022-07-05T09:34:52;35.00;1.00
11559;DHT22;5835;42.930;25.178;2022-07-05T09:37:20;35.40;1.00
11559;DHT22;5835;42.930;25.178;2022-07-05T09:39:48;35.60;1.00
11559;DHT22;5835;42.930;25.178;2022-07-05T09:42:17;35.30;1.00
11559;DHT22;5835;42.930;25.178;2022-07-05T09:44:50;34.70;1.00
11559;DHT22;5835;42.930;25.178;2022-07-05T09:47:20;35.40;1.00
11559;DHT22;5835;42.930;25.178;2022-07-05T09:49:49;36.00;1.00
11559;DHT22;5835;42.930;25.178;2022-07-05T09:52:28;36.10;1.00
11559;DHT22;5835;42.930;25.178;2022-07-05T09:55:07;36.60;1.00
11559;DHT22;5835;42.930;25.178;2022-07-05T09:57:37;37.00;1.00
11559;DHT22;5835;42.930;25.178;2022-07-05T10:00:08;36.90;1.00
11559;DHT22;5835;42.930;25.178;2022-07-05T10:02:39;36.40;1.00
11559;DHT22;5835;42.930;25.178;2022-07-05T10:05:10;36.10;1.00
11559;DHT22;5835;42.930;25.178;2022-07-05T10:07:41;36.10;1.00
11559;DHT22;5835;42.930;25.178;2022-07-05T10:10:11;35.80;1.00
11559;DHT22;5835;42.930;25.178;2022-07-05T10:12:41;36.60;1.00
11559;DHT22;5835;42.930;25.178;2022-07-05T10:15:10;36.80;1.00
11559;DHT22;5835;42.930;25.178;2022-07-05T10:17:41;36.30;1.00
11559;DHT22;5835;42.930;25.178;2022-07-05T10:20:19;36.20;1.00
11559;DHT22;5835;42.930;25.178;2022-07-05T10:22:51;37.40;1.00
11559;DHT22;5835;42.930;25.178;2022-07-05T10:25:20;37.40;1.00
11559;DHT22;5835;42.930;25.178;2022-07-05T10:27:48;37.90;1.00
11559;DHT22;5835;42.930;25.178;2022-07-05T10:30:20;38.20;1.00
11559;DHT22;5835;42.930;25.178;2022-07-05T10:32:49;37.90;1.00
11559;DHT22;5835;42.930;25.178;2022-07-05T10:35:18;38.10;1.00
11559;DHT22;5835;42.930;25.178;2022-07-05T10:37:48;38.50;1.00
11559;DHT22;5835;42.930;25.178;2022-07-05T10:40:18;39.00;1.00
11559;DHT22;5835;42.930;25.178;2022-07-05T10:42:48;38.80;1.00
11559;DHT22;5835;42.930;25.178;2022-07-05T10:45:29;39.10;1.00
11559;DHT22;5835;42.930;25.178;2022-07-05T10:48:13;39.70;1.00
11559;DHT22;5835;42.930;25.178;2022-07-05T10:50:49;39.60;1.00
11559;DHT22;5835;42.930;25.178;2022-07-05T10:53:18;39.60;1.00
11559;DHT22;5835;42.930;25.178;2022-07-05T10:55:55;40.00;1.00
11559;DHT22;5835;42.930;25.178;2022-07-05T10:58:28;39.60;1.00
11559;DHT22;5835;42.930;25.178;2022-07-05T11:04:28;38.90;1.00
11559;DHT22;5835;42.930;25.178;2022-07-05T11:07:00;38.60;1.00
11559;DHT22;5835;42.930;25.178;2022-07-05T11:09:28;38.20;1.00
11559;DHT22;5835;42.930;25.178;2022-07-05T11:12:11;38.30;1.00
11559;DHT22;5835;42.930;25.178;2022-07-05T11:14:47;37.30;1.00
11559;DHT22;5835;42.930;25.178;2022-07-05T11:17:23;36.90;1.00
11559;DHT22;5835;42.930;25.178;2022-07-05T11:20:15;37.30;1.00
11559;DHT22;5835;42.930;25.178;2022-07-05T11:23:11;39.00;1.00
11559;DHT22;5835;42.930;25.178;2022-07-05T11:25:42;39.40;1.00
11559;DHT22;5835;42.930;25.178;2022-07-05T11:28:19;39.20;1.00
11559;DHT22;5835;42.930;25.178;2022-07-05T11:30:51;39.50;1.00
11559;DHT22;5835;42.930;25.178;2022-07-05T11:33:27;38.90;1.00
11559;DHT22;5835;42.930;25.178;2022-07-05T11:35:55;39.30;1.00
11559;DHT22;5835;42.930;25.178;2022-07-05T11:38:25;38.70;1.00
11559;DHT22;5835;42.930;25.178;2022-07-05T11:40:53;39.00;1.00
11559;DHT22;5835;42.930;25.178;2022-07-05T11:43:29;39.00;1.00
11559;DHT22;5835;42.930;25.178;2022-07-05T11:45:58;39.70;1.00
11559;DHT22;5835;42.930;25.178;2022-07-05T11:48:27;40.30;1.00
11559;DHT22;5835;42.930;25.178;2022-07-05T11:50:55;40.20;1.00
11559;DHT22;5835;42.930;25.178;2022-07-05T11:53:29;39.70;1.00
11559;DHT22;5835;42.930;25.178;2022-07-05T11:55:58;39.60;1.00
11559;DHT22;5835;42.930;25.178;2022-07-05T11:58:32;39.50;1.00
11559;DHT22;5835;42.930;25.178;2022-07-05T12:01:00;39.60;1.00
11559;DHT22;5835;42.930;25.178;2022-07-05T12:03:28;38.50;1.00
11559;DHT22;5835;42.930;25.178;2022-07-05T12:05:56;38.30;1.00
11559;DHT22;5835;42.930;25.178;2022-07-05T12:08:25;39.00;1.00
11559;DHT22;5835;42.930;25.178;2022-07-05T12:10:52;39.60;1.00
11559;DHT22;5835;42.930;25.178;2022-07-05T12:13:46;39.80;1.00
11559;DHT22;5835;42.930;25.178;2022-07-05T12:16:14;40.20;1.00
11559;DHT22;5835;42.930;25.178;2022-07-05T12:18:51;40.70;1.00
11559;DHT22;5835;42.930;25.178;2022-07-05T12:21:20;41.00;1.00
11559;DHT22;5835;42.930;25.178;2022-07-05T12:23:49;41.00;1.00
11559;DHT22;5835;42.930;25.178;2022-07-05T12:26:18;40.60;1.00
11559;DHT22;5835;42.930;25.178;2022-07-05T12:28:48;40.70;1.00
11559;DHT22;5835;42.930;25.178;2022-07-05T12:31:18;41.00;1.00
11559;DHT22;5835;42.930;25.178;2022-07-05T12:33:46;40.60;1.00
11559;DHT22;5835;42.930;25.178;2022-07-05T12:36:15;40.50;1.00
11559;DHT22;5835;42.930;25.178;2022-07-05T12:38:43;40.90;1.00
11559;DHT22;5835;42.930;25.178;2022-07-05T12:41:11;41.00;1.00
11559;DHT22;5835;42.930;25.178;2022-07-05T12:43:53;40.70;1.00
11559;DHT22;5835;42.930;25.178;2022-07-05T12:46:34;40.60;1.00
11559;DHT22;5835;42.930;25.178;2022-07-05T12:49:03;40.20;1.00
11559;DHT22;5835;42.930;25.178;2022-07-05T12:51:32;40.20;1.00
11559;DHT22;5835;42.930;25.178;2022-07-05T12:54:01;40.70;1.00
11559;DHT22;5835;42.930;25.178;2022-07-05T12:56:50;40.70;1.00
11559;DHT22;5835;42.930;25.178;2022-07-05T12:59:37;40.70;1.00
11559;DHT22;5835;42.930;25.178;2022-07-05T13:02:06;40.80;1.00
11559;DHT22;5835;42.930;25.178;2022-07-05T13:04:34;41.40;1.00
11559;DHT22;5835;42.930;25.178;2022-07-05T13:07:02;41.30;1.00
11559;DHT22;5835;42.930;25.178;2022-07-05T13:09:32;41.90;1.00
11559;DHT22;5835;42.930;25.178;2022-07-05T13:12:09;41.60;1.00
11559;DHT22;5835;42.930;25.178;2022-07-05T13:14:39;41.70;1.00
11559;DHT22;5835;42.930;25.178;2022-07-05T13:17:08;41.80;1.00
11559;DHT22;5835;42.930;25.178;2022-07-05T13:19:38;41.90;1.00
11559;DHT22;5835;42.930;25.178;2022-07-05T13:22:06;41.70;1.00
11559;DHT22;5835;42.930;25.178;2022-07-05T13:24:34;41.60;1.00
11559;DHT22;5835;42.930;25.178;2022-07-05T13:27:04;41.70;1.00
11559;DHT22;5835;42.930;25.178;2022-07-05T13:29:32;41.70;1.00
11559;DHT22;5835;42.930;25.178;2022-07-05T13:32:04;41.40;1.00
11559;DHT22;5835;42.930;25.178;2022-07-05T13:34:32;41.00;1.00
11559;DHT22;5835;42.930;25.178;2022-07-05T13:37:00;41.20;1.00
11559;DHT22;5835;42.930;25.178;2022-07-05T13:39:28;41.00;1.00
11559;DHT22;5835;42.930;25.178;2022-07-05T13:41:57;41.20;1.00
11559;DHT22;5835;42.930;25.178;2022-07-05T13:44:25;40.90;1.00
11559;DHT22;5835;42.930;25.178;2022-07-05T13:46:52;40.70;1.00
11559;DHT22;5835;42.930;25.178;2022-07-05T13:49:21;39.60;1.00
11559;DHT22;5835;42.930;25.178;2022-07-05T13:51:49;40.10;1.00
11559;DHT22;5835;42.930;25.178;2022-07-05T13:54:17;40.40;1.00
11559;DHT22;5835;42.930;25.178;2022-07-05T13:56:44;40.30;1.00
11559;DHT22;5835;42.930;25.178;2022-07-05T13:59:12;40.10;1.00
11559;DHT22;5835;42.930;25.178;2022-07-05T14:01:40;39.70;1.00
11559;DHT22;5835;42.930;25.178;2022-07-05T14:04:07;39.90;1.00
11559;DHT22;5835;42.930;25.178;2022-07-05T14:06:36;39.90;1.00
11559;DHT22;5835;42.930;25.178;2022-07-05T14:09:04;40.00;1.00
11559;DHT22;5835;42.930;25.178;2022-07-05T14:11:31;39.80;1.00
11559;DHT22;5835;42.930;25.178;2022-07-05T14:13:59;39.80;1.00
11559;DHT22;5835;42.930;25.178;2022-07-05T14:16:27;40.20;1.00
11559;DHT22;5835;42.930;25.178;2022-07-05T14:18:55;40.00;1.00
11559;DHT22;5835;42.930;25.178;2022-07-05T14:21:23;40.40;1.00
11559;DHT22;5835;42.930;25.178;2022-07-05T14:23:52;40.40;1.00
11559;DHT22;5835;42.930;25.178;2022-07-05T14:26:19;40.60;1.00
11559;DHT22;5835;42.930;25.178;2022-07-05T14:28:47;40.40;1.00
11559;DHT22;5835;42.930;25.178;2022-07-05T14:31:15;40.30;1.00
11559;DHT22;5835;42.930;25.178;2022-07-05T14:33:43;40.40;1.00
11559;DHT22;5835;42.930;25.178;2022-07-05T14:36:10;40.60;1.00
11559;DHT22;5835;42.930;25.178;2022-07-05T14:38:42;40.40;1.00
11559;DHT22;5835;42.930;25.178;2022-07-05T14:41:12;40.80;1.00
11559;DHT22;5835;42.930;25.178;2022-07-05T14:43:39;40.30;1.00
11559;DHT22;5835;42.930;25.178;2022-07-05T14:46:07;40.30;1.00
11559;DHT22;5835;42.930;25.178;2022-07-05T14:48:37;40.20;1.00
11559;DHT22;5835;42.930;25.178;2022-07-05T14:51:05;40.30;1.00
11559;DHT22;5835;42.930;25.178;2022-07-05T14:53:33;40.20;1.00
11559;DHT22;5835;42.930;25.178;2022-07-05T14:56:02;40.30;1.00
11559;DHT22;5835;42.930;25.178;2022-07-05T14:58:31;40.50;1.00
11559;DHT22;5835;42.930;25.178;2022-07-05T15:00:59;40.50;1.00
11559;DHT22;5835;42.930;25.178;2022-07-05T15:03:27;40.30;1.00
11559;DHT22;5835;42.930;25.178;2022-07-05T15:05:54;40.00;1.00
11559;DHT22;5835;42.930;25.178;2022-07-05T15:08:22;39.80;1.00
11559;DHT22;5835;42.930;25.178;2022-07-05T15:10:51;39.90;1.00
11559;DHT22;5835;42.930;25.178;2022-07-05T15:13:18;39.80;1.00
11559;DHT22;5835;42.930;25.178;2022-07-05T15:15:48;39.70;1.00
11559;DHT22;5835;42.930;25.178;2022-07-05T15:18:15;39.80;1.00
11559;DHT22;5835;42.930;25.178;2022-07-05T15:20:43;39.70;1.00
11559;DHT22;5835;42.930;25.178;2022-07-05T15:23:11;39.80;1.00
11559;DHT22;5835;42.930;25.178;2022-07-05T15:25:38;39.70;1.00
11559;DHT22;5835;42.930;25.178;2022-07-05T15:28:06;39.90;1.00
11559;DHT22;5835;42.930;25.178;2022-07-05T15:30:36;40.00;1.00
11559;DHT22;5835;42.930;25.178;2022-07-05T15:33:06;40.00;1.00
11559;DHT22;5835;42.930;25.178;2022-07-05T15:35:34;40.00;1.00
11559;DHT22;5835;42.930;25.178;2022-07-05T15:38:02;39.30;1.00
11559;DHT22;5835;42.930;25.178;2022-07-05T15:40:30;39.10;1.00
11559;DHT22;5835;42.930;25.178;2022-07-05T15:42:58;39.30;1.00
11559;DHT22;5835;42.930;25.178;2022-07-05T15:45:25;39.00;1.00
11559;DHT22;5835;42.930;25.178;2022-07-05T15:47:53;38.90;1.00
11559;DHT22;5835;42.930;25.178;2022-07-05T15:50:23;38.70;1.00
11559;DHT22;5835;42.930;25.178;2022-07-05T15:52:50;38.50;1.00
11559;DHT22;5835;42.930;25.178;2022-07-05T15:55:18;38.50;1.00
11559;DHT22;5835;42.930;25.178;2022-07-05T15:57:46;38.20;1.00
11559;DHT22;5835;42.930;25.178;2022-07-05T16:00:14;38.00;1.00